• Join FlightAware (Why Join?)
  • Login
  • US Flag 
08:37PM EDT


 

Airport Tracker/Info


-or-


 

Live Flight TrackerFlight Track Log ✈ F-HPJG ✈ 28-Jun-2013 ✈ KLAX - LFPG / CDG

Flight Track Log - Related Links

Times and Time Zones

All times are in EDT time to prevent confusion due to time zone crossing. See the F-HPJG flight status page for this flight to view local times or setup timezone preferences in your user account.

Time Position Orientation Groundspeed Altitude Reporting Facility
EDT Latitude Longitude Course Direction KTS MPH feet Rate Location/Type
07:17PM 33.9450 -118.4490 262° West 150 173 800  Level FlightAware
07:18PM 33.9410 -118.4830 262° West 155 178 1,700 960 Climbing FlightAware
07:19PM 33.9300 -118.5260 253° West 180 207 2,200 480 Climbing FlightAware
07:19PM 33.9220 -118.5450 243° Southwest 180 207 2,300 1,560 Climbing FlightAware
07:19PM 33.9080 -118.5750 241° Southwest 241 277 3,300 2,880 Climbing FlightAware
07:20PM 33.8920 -118.6090 240° Southwest 240 276 4,600 2,460 Climbing FlightAware
07:20PM 33.8810 -118.6190 217° Southwest 242 278 5,000 1,920 Climbing FlightAware
07:20PM 33.8630 -118.6240 193° South 253 291 5,500 1,920 Climbing FlightAware
07:21PM 33.8490 -118.6210 170° South 257 296 5,900 1,980 Climbing FlightAware
07:21PM 33.8220 -118.6010 148° Southeast 270 311 6,800 1,860 Climbing FlightAware
07:21PM 33.8130 -118.5770 114° Southeast 276 318 7,300 2,160 Climbing FlightAware
07:22PM 33.8070 -118.5410 101° East 272 313 8,300 2,280 Climbing FlightAware
07:22PM 33.8040 -118.5000 95° East 273 314 9,300 1,980 Climbing FlightAware
07:23PM 33.8230 -118.4370 70° East 285 328 10,700 1,680 Climbing FlightAware
07:24PM 33.8600 -118.3880 48° Northeast 306 352 11,700 1,260 Climbing FlightAware
07:24PM 33.9120 -118.3380 39° Northeast 343 395 12,500 1,140 Climbing FlightAware
07:25PM 33.9610 -118.2830 43° Northeast 371 427 13,300 1,200 Climbing FlightAware
07:26PM 34.0160 -118.2190 44° Northeast 395 455 14,200 1,200 Climbing FlightAware
07:26PM 34.0730 -118.1560 42° Northeast 420 483 15,000 1,260 Climbing FlightAware
07:27PM 34.1300 -118.0850 46° Northeast 432 497 16,000 1,500 Climbing FlightAware
07:28PM 34.1830 -117.9920 55° Northeast 444 511 17,200 1,920 Climbing FlightAware
07:29PM 34.2290 -117.9090 56° Northeast 440 506 18,800 1,920 Climbing FlightAware
07:29PM 34.2780 -117.8220 56° Northeast 446 513 19,900 1,500 Climbing FlightAware
07:30PM 34.3260 -117.7360 56° Northeast 455 524 20,900 1,500 Climbing FlightAware
07:31PM 34.3690 -117.6590 56° Northeast 459 528 21,900 1,560 Climbing FlightAware
07:31PM 34.4260 -117.5560 56° Northeast 464 534 23,100 1,380 Climbing FlightAware
07:32PM 34.4790 -117.4610 56° Northeast 473 544 24,000 1,260 Climbing FlightAware
07:33PM 34.5270 -117.3740 56° Northeast 481 554 24,900 1,440 Climbing FlightAware
07:33PM 34.5800 -117.2780 56° Northeast 481 554 26,000 1,380 Climbing FlightAware
07:34PM 34.6240 -117.1970 57° Northeast 488 562 26,700 1,020 Climbing FlightAware
07:35PM 34.6880 -117.0820 56° Northeast 498 573 27,500 1,080 Climbing FlightAware
07:36PM 34.7370 -116.9920 56° Northeast 498 573 28,300 1,200 Climbing FlightAware
07:36PM 34.7920 -116.8910 56° Northeast 500 575 29,200 1,200 Climbing FlightAware
07:37PM 34.8440 -116.7950 57° Northeast 503 579 30,000 1,320 Climbing FlightAware
07:38PM 34.8990 -116.6940 56° Northeast 498 573 31,100 1,560 Climbing FlightAware
07:38PM 34.9540 -116.5940 56° Northeast 488 562 32,300 1,380 Climbing FlightAware
07:39PM 35.0150 -116.5120 48° Northeast 490 564 33,100 1,320 Climbing FlightAware
07:40PM 35.0840 -116.4260 46° Northeast 480 552 34,200 1,140 Climbing FlightAware
07:40PM 35.1480 -116.3470 45° Northeast 485 558 34,700 540 Climbing FlightAware
07:41PM 35.2130 -116.2650 46° Northeast 490 564 35,000 180 Climbing FlightAware
07:42PM 35.2800 -116.1810 46° Northeast 490 564 35,000  Level FlightAware
07:43PM 35.3500 -116.0930 46° Northeast 489 563 35,000  Level FlightAware
07:43PM 35.4110 -116.0160 46° Northeast 489 563 35,000  Level FlightAware
07:44PM 35.4820 -115.9260 46° Northeast 492 566 35,000  Level FlightAware
07:45PM 35.5400 -115.8530 46° Northeast 495 570 35,000  Level FlightAware
07:45PM 35.6150 -115.7560 46° Northeast 495 570 35,000  Level FlightAware
07:46PM 35.6790 -115.6750 46° Northeast 492 566 35,000  Level FlightAware
07:47PM 35.7450 -115.5910 46° Northeast 495 570 35,000  Level FlightAware
07:47PM 35.8090 -115.5090 46° Northeast 493 567 35,000  Level FlightAware
07:48PM 35.8750 -115.4240 46° Northeast 492 566 35,000  Level FlightAware
07:49PM 35.9440 -115.3350 46° Northeast 491 565 35,000  Level FlightAware
07:50PM 36.0060 -115.2540 47° Northeast 492 566 35,000  Level FlightAware
07:50PM 36.0670 -115.1750 46° Northeast 493 567 35,000  Level FlightAware
07:51PM 36.1450 -115.0760 46° Northeast 495 570 35,000  Level FlightAware
07:52PM 36.2090 -114.9960 45° Northeast 496 571 35,000  Level FlightAware
07:52PM 36.2810 -114.9050 46° Northeast 495 570 35,000  Level FlightAware
07:53PM 36.3450 -114.8230 46° Northeast 498 573 35,000  Level FlightAware
07:54PM 36.4110 -114.7380 46° Northeast 500 575 35,000  Level FlightAware
07:54PM 36.4750 -114.6540 47° Northeast 499 574 35,000  Level FlightAware
07:55PM 36.5470 -114.5600 46° Northeast 497 572 35,000  Level FlightAware
07:56PM 36.6100 -114.4770 47° Northeast 496 571 35,000  Level FlightAware
07:57PM 36.6820 -114.3830 46° Northeast 494 568 35,000 60 Level FlightAware
07:57PM 36.7380 -114.3130 45° Northeast 501 577 35,100 600 Climbing FlightAware
07:58PM 36.8230 -114.2320 37° Northeast 505 581 35,800 840 Climbing FlightAware
07:59PM 36.9330 -114.1470 32° Northeast 501 577 36,600 660 Climbing FlightAware
08:00PM 37.0090 -114.0870 32° Northeast 505 581 36,900 300 Climbing FlightAware
08:00PM 37.0880 -114.0260 32° Northeast 494 568 37,000 60 Climbing FlightAware
08:01PM 37.1730 -113.9600 32° Northeast 497 572 37,000  Level FlightAware
08:02PM 37.2650 -113.8880 32° Northeast 497 572 37,000  Level FlightAware
08:03PM 37.3680 -113.8070 32° Northeast 497 572 37,000  Level FlightAware
08:03PM 37.4560 -113.7380 32° Northeast 498 573 37,000  Level FlightAware
08:04PM 37.5400 -113.6710 32° Northeast 498 573 37,000  Level FlightAware
08:05PM 37.6020 -113.6220 32° Northeast 498 573 37,000  Level FlightAware
08:06PM 37.7050 -113.5410 32° Northeast 498 573 37,000  Level FlightAware
08:06PM 37.7650 -113.4940 32° Northeast 498 573 37,000  Level FlightAware
08:07PM 37.8450 -113.4310 32° Northeast 498 573 37,000  Level FlightAware
08:08PM 37.9040 -113.3830 33° Northeast 498 573 37,000  Level FlightAware
08:09PM 37.9870 -113.3180 32° Northeast 498 573 37,000  Level FlightAware
08:09PM 38.0440 -113.2730 32° Northeast 498 573 37,000  Level FlightAware
08:10PM 38.1490 -113.1900 32° Northeast 498 573 37,000  Level FlightAware
08:11PM 38.1880 -113.1580 33° Northeast 498 573 37,000  Level FlightAware
08:11PM 38.2660 -113.0960 32° Northeast 498 573 37,000  Level FlightAware
08:12PM 38.3250 -113.0500 31° Northeast 498 573 37,000  Level FlightAware
08:13PM 38.4030 -112.9870 32° Northeast 498 573 37,000  Level FlightAware
08:13PM 38.4620 -112.9400 32° Northeast 498 573 37,000  Level FlightAware
08:14PM 38.5390 -112.8790 32° Northeast 498 573 37,000  Level FlightAware
08:15PM 38.7550 -112.5314 32° Northeast 511 588 37,000  Level Salt Lake Center
08:16PM 38.8608 -112.4111 41° Northeast 509 586 37,000  Level Salt Lake Center
08:17PM 38.9678 -112.2936 40° Northeast 506 582 37,000  Level Salt Lake Center
08:23PM 39.5570 -111.5940 40° Northeast 503 579 37,000  Level FlightAware
08:23PM 39.6290 -111.5080 43° Northeast 505 581 37,000  Level FlightAware
08:24PM 39.6930 -111.4300 43° Northeast 505 581 37,000  Level FlightAware
08:25PM 39.7650 -111.3420 43° Northeast 508 585 37,000  Level FlightAware
08:25PM 39.8450 -111.2430 44° Northeast 508 585 37,000  Level FlightAware
08:26PM 39.9190 -111.1520 43° Northeast 507 583 37,000  Level FlightAware
08:27PM 39.9870 -111.0680 43° Northeast 509 586 37,000  Level FlightAware
08:28PM 40.0580 -110.9800 43° Northeast 511 588 37,000  Level FlightAware
08:28PM 40.1280 -110.8930 44° Northeast 515 593 37,000  Level FlightAware
08:29PM 40.2030 -110.8000 43° Northeast 516 594 37,000  Level FlightAware
08:30PM 40.2740 -110.7110 44° Northeast 517 595 37,000  Level FlightAware
08:31PM 40.3660 -110.5950 44° Northeast 520 598 37,000  Level FlightAware
08:31PM 40.4410 -110.5010 44° Northeast 519 597 37,000  Level FlightAware
08:32PM 40.5210 -110.4000 44° Northeast 514 592 37,000  Level FlightAware
08:33PM 40.5820 -110.3230 44° Northeast 515 593 37,000  Level FlightAware
08:33PM 40.6610 -110.2230 44° Northeast 517 595 37,000  Level FlightAware
08:34PM 40.7370 -110.1260 44° Northeast 517 595 37,000  Level FlightAware
08:35PM 40.7910 -110.0570 44° Northeast 518 596 37,000  Level FlightAware
08:36PM 40.8620 -109.9650 44° Northeast 518 596 37,000  Level FlightAware
08:36PM 40.9150 -109.8980 44° Northeast 518 596 37,000  Level FlightAware
08:37PM 40.9870 -109.8060 44° Northeast 518 596 37,000  Level FlightAware
08:38PM 41.0400 -109.7390 44° Northeast 518 596 37,000  Level FlightAware
08:38PM 41.0940 -109.6690 44° Northeast 518 596 37,000  Level FlightAware
08:39PM 41.1610 -109.5830 44° Northeast 518 596 37,000  Level FlightAware
08:40PM 41.2170 -109.5110 44° Northeast 518 596 37,000  Level FlightAware
08:40PM 41.2870 -109.4210 44° Northeast 518 596 37,000  Level FlightAware
08:41PM 41.3550 -109.3340 44° Northeast 518 596 37,000  Level FlightAware
08:42PM 41.4070 -109.2660 44° Northeast 518 596 37,000  Level FlightAware
08:43PM 41.4790 -109.1740 44° Northeast 518 596 37,000  Level FlightAware
08:43PM 41.5330 -109.1040 44° Northeast 518 596 37,000  Level FlightAware
08:44PM 41.6020 -109.0150 44° Northeast 518 596 37,000  Level FlightAware
08:45PM 41.6550 -108.9470 44° Northeast 518 596 37,000  Level FlightAware
08:46PM 41.8933 -108.4881 44° Northeast 521 600 37,000  Level Salt Lake Center
08:47PM 41.9753 -108.3394 53° Northeast 519 597 37,000  Level Salt Lake Center
08:48PM 42.0611 -108.1908 52° Northeast 524 603 37,000  Level Salt Lake Center
08:49PM 42.1550 -108.0178 54° Northeast 513 590 37,000  Level Salt Lake Center
08:50PM 42.2392 -107.8706 52° Northeast 516 594 37,000  Level Salt Lake Center
08:51PM 42.3325 -107.6989 54° Northeast 512 589 37,000  Level Salt Lake Center
08:52PM 42.4125 -107.5519 54° Northeast 508 585 37,000  Level Salt Lake Center
08:53PM 42.5069 -107.3808 53° Northeast 508 585 37,000  Level Salt Lake Center
08:54PM 42.5875 -107.2339 53° Northeast 507 583 37,000  Level Salt Lake Center
08:55PM 42.6650 -107.0864 54° Northeast 503 579 37,000  Level Salt Lake Center
08:56PM 42.7525 -106.9228 54° Northeast 498 573 37,000  Level Salt Lake Center
08:57PM 42.8314 -106.7761 54° Northeast 500 575 37,000  Level Salt Lake Center
08:58PM 42.9214 -106.6050 54° Northeast 498 573 37,000  Level Salt Lake Center
08:59PM 42.9989 -106.4583 54° Northeast 497 572 37,000  Level Salt Lake Center
09:00PM 43.0900 -106.2867 54° Northeast 498 573 37,000  Level Salt Lake Center
09:02PM 43.1856 -106.0778 58° Northeast 504 580 37,000  Level Denver Center
09:03PM 43.2578 -105.9228 57° Northeast 504 580 37,000  Level Denver Center
09:04PM 43.3306 -105.7664 57° Northeast 505 581 37,000  Level Denver Center
09:05PM 43.4142 -105.5847 58° Northeast 504 580 37,000  Level Denver Center
09:06PM 43.4861 -105.4286 58° Northeast 504 580 37,000  Level Denver Center
09:07PM 43.5692 -105.2469 58° Northeast 503 579 37,000  Level Denver Center
09:08PM 43.6406 -105.0889 58° Northeast 503 579 37,000  Level Denver Center
09:09PM 43.7117 -104.9300 58° Northeast 505 581 37,000  Level Denver Center
09:10PM 43.7936 -104.7461 58° Northeast 504 580 37,000  Level Denver Center
09:11PM 43.8642 -104.5867 58° Northeast 504 580 37,000  Level Denver Center
09:12PM 43.9464 -104.4011 58° Northeast 505 581 37,000  Level Denver Center
09:13PM 44.0286 -104.2183 58° Northeast 503 579 37,000  Level Denver Center
09:14PM 44.1119 -104.0292 58° Northeast 509 586 37,000  Level Denver Center
09:15PM 44.1814 -103.8667 59° Northeast 511 588 37,000  Level Denver Center
09:16PM 44.2639 -103.6775 59° Northeast 511 588 37,000  Level Denver Center
09:17PM 44.3336 -103.5150 59° Northeast 510 587 37,000  Level Denver Center
09:18PM 44.4142 -103.3258 59° Northeast 508 585 37,000  Level Denver Center
09:19PM 44.4722 -103.1875 60° Northeast 506 582 37,000  Level Denver Center
09:20PM 44.5578 -102.9825 60° Northeast 508 585 37,000  Level Denver Center
09:21PM 44.6292 -102.8150 59° Northeast 502 578 37,000  Level Denver Center
09:22PM 44.7006 -102.6447 59° Northeast 503 579 37,000  Level Denver Center
09:23PM 44.7692 -102.4756 60° Northeast 501 577 37,000  Level Denver Center
09:24PM 44.8400 -102.3067 59° Northeast 501 577 37,000  Level Denver Center
09:25PM 44.8956 -102.1658 61° Northeast 501 577 37,000  Level Minneapolis Center
09:26PM 44.9647 -101.9956 60° Northeast 500 575 37,000  Level Minneapolis Center
09:27PM 45.0339 -101.8272 60° Northeast 492 566 37,000  Level Minneapolis Center
09:28PM 45.1181 -101.6808 51° Northeast 473 544 37,000  Level Minneapolis Center
09:29PM 45.2167 -101.5617 40° Northeast 460 529 37,000  Level Minneapolis Center
09:30PM 45.3592 -101.4025 38° Northeast 466 536 37,000  Level Minneapolis Center
09:31PM 45.4611 -101.2881 38° Northeast 466 536 37,000  Level Minneapolis Center
09:32PM 45.5636 -101.1728 38° Northeast 468 539 37,000  Level Minneapolis Center
09:33PM 45.6661 -101.0564 38° Northeast 470 541 37,000  Level Minneapolis Center
09:35PM 45.7692 -100.9394 38° Northeast 471 542 37,000  Level Minneapolis Center
09:36PM 45.8714 -100.8225 39° Northeast 467 537 37,000  Level Minneapolis Center
09:37PM 45.9725 -100.7061 39° Northeast 464 534 37,000  Level Minneapolis Center
09:38PM 46.0731 -100.5903 39° Northeast 462 532 37,000  Level Minneapolis Center
09:39PM 46.1731 -100.4744 39° Northeast 459 528 37,000  Level Minneapolis Center
09:40PM 46.2919 -100.3358 39° Northeast 455 524 37,000  Level Minneapolis Center
09:41PM 46.3900 -100.2208 39° Northeast 452 520 37,000  Level Minneapolis Center
09:42PM 46.4881 -100.1053 39° Northeast 456 525 37,000  Level Minneapolis Center
09:43PM 46.5792 -99.9981 39° Northeast 462 532 37,000  Level Minneapolis Center
09:44PM 46.6961 -99.8586 39° Northeast 467 537 37,000  Level Minneapolis Center
09:45PM 46.7967 -99.7381 39° Northeast 469 540 37,000  Level Minneapolis Center
09:51PM 47.4230 -98.9760 39° Northeast 474 545 37,000  Level FlightAware
09:52PM 47.4940 -98.8880 40° Northeast 472 543 37,000  Level FlightAware
09:52PM 47.5640 -98.8000 40° Northeast 471 542 37,000  Level FlightAware
09:53PM 47.6250 -98.7240 40° Northeast 469 540 37,000  Level FlightAware
09:54PM 47.7060 -98.6230 40° Northeast 474 545 37,000  Level FlightAware
09:54PM 47.7740 -98.5380 40° Northeast 477 549 37,000  Level FlightAware
09:55PM 47.8620 -98.4270 40° Northeast 480 552 37,000  Level FlightAware
09:56PM 47.9330 -98.3360 41° Northeast 481 554 37,000  Level FlightAware
09:57PM 48.0030 -98.2170 49° Northeast 507 583 37,000  Level FlightAware
09:57PM 48.0460 -98.0990 61° Northeast 500 575 37,000  Level FlightAware
09:58PM 48.0970 -97.9680 60° Northeast 492 566 37,000  Level FlightAware
09:59PM 48.1460 -97.8380 61° Northeast 493 567 37,000  Level FlightAware
09:59PM 48.1860 -97.7330 60° Northeast 496 571 37,000  Level FlightAware
10:01PM 48.2980 -97.4400 60° Northeast 496 571 37,000  Level FlightAware
10:04PM 48.4440 -97.0360 61° Northeast 502 578 37,000  Level FlightAware
10:04PM 48.5120 -96.8480 61° Northeast 503 579 37,000  Level FlightAware
10:05PM 48.5570 -96.7250 61° Northeast 498 573 37,000  Level FlightAware
10:06PM 48.6060 -96.5900 61° Northeast 495 570 37,000  Level FlightAware
10:06PM 48.6540 -96.4540 62° Northeast 494 568 37,000  Level FlightAware
10:07PM 48.6980 -96.3320 61° Northeast 493 567 37,000  Level FlightAware
10:08PM 48.7500 -96.1850 62° Northeast 494 568 37,000  Level FlightAware
10:09PM 48.8060 -96.0260 62° Northeast 496 571 37,000  Level FlightAware
10:09PM 48.8480 -95.9070 62° Northeast 496 571 37,000  Level FlightAware
10:10PM 48.8910 -95.7830 62° Northeast 490 564 37,000  Level FlightAware
10:11PM 48.9290 -95.6750 62° Northeast 489 563 37,000  Level FlightAware
10:12PM 48.9720 -95.5510 62° Northeast 489 563 37,000  Level FlightAware
10:12PM 49.0060 -95.4550 62° Northeast 489 563 37,000  Level FlightAware
10:13PM 49.0380 -95.3620 62° Northeast 489 563 37,000  Level FlightAware
10:14PM 49.0820 -95.2370 62° Northeast 489 563 37,000  Level FlightAware
10:14PM 49.1140 -95.1440 62° Northeast 489 563 37,000  Level FlightAware
10:16PM 49.1900 -94.9260 62° Northeast 489 563 37,000  Level FlightAware
10:17PM 49.2450 -94.7670 62° Northeast 489 563 37,000  Level FlightAware
10:17PM 49.2880 -94.6430 62° Northeast 489 563 37,000  Level FlightAware
10:18PM 49.3210 -94.5490 62° Northeast 489 563 37,000  Level FlightAware
10:19PM 49.3550 -94.4500 62° Northeast 489 563 37,000  Level FlightAware
10:19PM 49.3990 -94.3220 62° Northeast 489 563 37,000  Level FlightAware
10:20PM 49.4330 -94.2250 62° Northeast 489 563 37,000  Level FlightAware
10:22PM 49.6333 -93.7333 62° Northeast 480 552 37,000  Level Winnipeg Center
10:23PM 49.7167 -93.5833 49° Northeast 470 541 37,000  Level Winnipeg Center
10:24PM 49.8000 -93.4333 49° Northeast 470 541 37,000  Level Winnipeg Center
10:25PM 49.9000 -93.2833 44° Northeast 480 552 37,000  Level Winnipeg Center
10:26PM 49.9833 -93.1167 52° Northeast 480 552 37,000  Level Winnipeg Center
10:27PM 50.0667 -92.9833 46° Northeast 480 552 37,000  Level Winnipeg Center
10:28PM 50.1500 -92.8167 52° Northeast 480 552 37,000  Level Winnipeg Center
10:29PM 50.2500 -92.6500 47° Northeast 480 552 37,000  Level Winnipeg Center
10:30PM 50.3333 -92.4833 52° Northeast 480 552 37,000  Level Winnipeg Center
10:31PM 50.4167 -92.3333 49° Northeast 480 552 37,000  Level Winnipeg Center
10:32PM 50.5000 -92.1833 49° Northeast 470 541 37,000  Level Winnipeg Center
10:33PM 50.5833 -92.0000 54° Northeast 470 541 37,000  Level Winnipeg Center
10:34PM 50.6667 -91.8667 45° Northeast 470 541 37,000  Level Winnipeg Center
10:35PM 50.7667 -91.7000 46° Northeast 480 552 37,000  Level Winnipeg Center
10:36PM 50.8333 -91.5500 55° Northeast 480 552 37,000  Level Winnipeg Center
10:37PM 50.9333 -91.3833 46° Northeast 480 552 37,000  Level Winnipeg Center
10:38PM 51.0167 -91.2167 51° Northeast 480 552 37,000  Level Winnipeg Center
10:39PM 51.1000 -91.0500 51° Northeast 480 552 37,000  Level Winnipeg Center
10:40PM 51.1833 -90.9000 48° Northeast 480 552 37,000  Level Winnipeg Center
10:41PM 51.2667 -90.7333 51° Northeast 480 552 37,000  Level Winnipeg Center
10:42PM 51.3500 -90.5500 54° Northeast 480 552 37,000  Level Winnipeg Center
10:43PM 51.4333 -90.4000 48° Northeast 480 552 37,000  Level Winnipeg Center
10:44PM 51.5167 -90.2333 51° Northeast 480 552 37,000  Level Winnipeg Center
10:45PM 51.6000 -90.0667 51° Northeast 480 552 37,000  Level Winnipeg Center
10:46PM 51.6833 -89.8833 54° Northeast 480 552 37,000  Level Winnipeg Center
10:47PM 51.7833 -89.7000 49° Northeast 480 552 37,000  Level Winnipeg Center
10:48PM 51.8500 -89.5333 57° Northeast 480 552 37,000  Level Winnipeg Center
10:49PM 51.9333 -89.3833 48° Northeast 490 564 37,000  Level Winnipeg Center
10:50PM 52.0333 -89.2000 48° Northeast 480 552 37,000  Level Winnipeg Center
10:51PM 52.1000 -89.0167 59° Northeast 480 552 37,000  Level Winnipeg Center
10:51PM 52.1500 -88.8833 59° Northeast 490 564 37,000  Level Edmonton Center
10:52PM 52.2167 -88.7167 57° Northeast 480 552 37,000  Level Edmonton Center
10:53PM 52.3000 -88.5500 51° Northeast 490 564 37,000  Level Edmonton Center
10:54PM 52.3833 -88.3667 53° Northeast 490 564 37,000  Level Edmonton Center
10:55PM 52.4667 -88.1833 53° Northeast 490 564 37,000  Level Edmonton Center
10:56PM 52.5500 -88.0167 51° Northeast 490 564 37,000  Level Edmonton Center
10:57PM 52.6167 -87.8167 61° Northeast 490 564 37,000  Level Edmonton Center
10:58PM 52.7167 -87.6333 48° Northeast 490 564 37,000  Level Edmonton Center
10:59PM 52.7833 -87.4500 59° Northeast 490 564 37,000  Level Edmonton Center
11:00PM 52.8667 -87.2833 50° Northeast 490 564 37,000  Level Edmonton Center
11:01PM 52.9500 -87.1000 53° Northeast 490 564 37,000  Level Edmonton Center
11:02PM 53.0333 -86.8833 57° Northeast 500 575 37,000  Level Edmonton Center
11:03PM 53.1000 -86.7167 56° Northeast 500 575 37,000  Level Edmonton Center
11:04PM 53.2000 -86.5167 50° Northeast 500 575 37,000  Level Edmonton Center
11:05PM 53.2667 -86.3500 56° Northeast 500 575 37,000  Level Edmonton Center
11:06PM 53.3500 -86.1333 57° Northeast 500 575 37,000  Level Edmonton Center
11:07PM 53.4333 -85.9500 53° Northeast 500 575 37,000  Level Edmonton Center
11:08PM 53.5167 -85.7500 55° Northeast 500 575 37,000  Level Edmonton Center
11:09PM 53.5833 -85.5667 58° Northeast 500 575 37,000  Level Edmonton Center
11:10PM 53.6667 -85.3667 55° Northeast 500 575 37,000  Level Edmonton Center
11:11PM 53.7500 -85.1667 55° Northeast 500 575 37,000  Level Edmonton Center
11:12PM 53.8167 -84.9833 58° Northeast 500 575 37,000  Level Edmonton Center
11:13PM 53.9333 -84.9000 23° Northeast 500 575 37,000  Level Montreal Center
11:14PM 54.0167 -84.7167 52° Northeast 500 575 37,000  Level Montreal Center
11:15PM 54.1000 -84.5000 57° Northeast 500 575 37,000  Level Montreal Center
11:16PM 54.1667 -84.3167 58° Northeast 500 575 37,000  Level Montreal Center
11:17PM 54.2500 -84.1000 57° Northeast 500 575 37,000  Level Montreal Center
11:18PM 54.3333 -83.9167 52° Northeast 500 575 37,000  Level Montreal Center
11:19PM 54.4000 -83.7333 58° Northeast 500 575 37,000  Level Montreal Center
11:20PM 54.4833 -83.5167 56° Northeast 510 587 37,000  Level Montreal Center
11:21PM 54.5500 -83.2833 64° Northeast 510 587 37,000  Level Montreal Center
11:22PM 54.6333 -83.1000 52° Northeast 510 587 37,000  Level Montreal Center
11:23PM 54.7167 -82.8833 56° Northeast 510 587 37,000  Level Montreal Center
11:24PM 54.7833 -82.6833 60° Northeast 510 587 37,000  Level Montreal Center
11:25PM 54.8667 -82.4667 56° Northeast 510 587 37,000  Level Montreal Center
11:26PM 54.9333 -82.2667 60° Northeast 510 587 37,000  Level Montreal Center
11:27PM 55.0167 -82.0500 56° Northeast 510 587 37,000  Level Montreal Center
11:28PM 55.0833 -81.8500 60° Northeast 510 587 37,000  Level Montreal Center
11:29PM 55.1667 -81.6167 58° Northeast 510 587 37,000  Level Montreal Center
11:30PM 55.2333 -81.4333 57° Northeast 510 587 37,000  Level Montreal Center
11:31PM 55.3167 -81.2000 58° Northeast 530 610 37,000  Level Montreal Center
11:32PM 55.3833 -80.9667 63° Northeast 510 587 37,000  Level Montreal Center
11:33PM 55.4500 -80.7667 59° Northeast 500 575 37,000  Level Montreal Center
11:34PM 55.5333 -80.5667 54° Northeast 500 575 37,000  Level Montreal Center
11:35PM 55.6000 -80.3500 61° Northeast 500 575 37,000  Level Montreal Center
11:36PM 55.6667 -80.1333 61° Northeast 500 575 37,000  Level Montreal Center
11:37PM 55.7333 -79.9167 61° Northeast 500 575 37,000  Level Montreal Center
11:38PM 55.8000 -79.7000 61° Northeast 490 564 37,000  Level Montreal Center
11:39PM 55.8667 -79.5000 59° Northeast 490 564 37,000  Level Montreal Center
11:40PM 55.9167 -79.2667 69° East 490 564 37,000  Level Montreal Center
11:41PM 56.0000 -79.0667 53° Northeast 490 564 37,000  Level Montreal Center
11:42PM 56.0500 -78.8500 67° East 490 564 37,000  Level Montreal Center
11:43PM 56.1167 -78.6167 63° Northeast 480 552 37,000  Level Montreal Center
11:44PM 56.1833 -78.4167 59° Northeast 490 564 37,000  Level Montreal Center
11:45PM 56.2500 -78.1667 64° Northeast 490 564 37,000  Level Montreal Center
11:46PM 56.3000 -77.9667 66° East 490 564 37,000  Level Montreal Center
11:47PM 56.3667 -77.7167 64° Northeast 490 564 37,000  Level Montreal Center
11:48PM 56.4333 -77.5167 59° Northeast 480 552 37,000  Level Montreal Center
11:49PM 56.5000 -77.2667 64° Northeast 490 564 37,000  Level Montreal Center
11:50PM 56.5500 -77.0833 64° Northeast 490 564 37,000  Level Montreal Center
11:51PM 56.6167 -76.8500 62° Northeast 490 564 37,000  Level Montreal Center
11:52PM 56.6333 -76.5833 83° East 430 495 37,000  Level Winnipeg Center
11:53PM 56.7167 -76.4167 48° Northeast 490 564 37,000  Level Montreal Center
11:54PM 56.7833 -76.1833 62° Northeast 470 541 37,000  Level Montreal Center
11:55PM 56.8333 -75.9333 70° East 480 552 37,000  Level Montreal Center
11:56PM 56.9000 -75.7167 61° Northeast 490 564 37,000  Level Montreal Center
11:57PM 56.9500 -75.5000 67° East 490 564 37,000  Level Montreal Center
11:58PM 57.0167 -75.2500 64° Northeast 490 564 37,000  Level Montreal Center
11:59PM 57.0667 -75.0333 67° East 490 564 37,000  Level Montreal Center
12:00AM 57.1333 -74.7833 64° Northeast 490 564 37,000  Level Montreal Center
12:01AM 57.1667 -74.6667 62° Northeast 510 587 37,000  Level Gander Center
12:02AM 57.2333 -74.4333 62° Northeast 490 564 37,000 120 Level Gander Center
12:03AM 57.2833 -74.2000 68° East 500 575 37,300 600 Climbing Gander Center
12:04AM 57.3333 -73.9667 68° East 510 587 38,200 660 Climbing Gander Center
12:05AM 57.4000 -73.7167 64° Northeast 510 587 38,700 360 Climbing Gander Center
12:06AM 57.4500 -73.4833 68° East 510 587 39,000 120 Climbing Gander Center
12:07AM 57.5167 -73.2167 65° Northeast 520 598 39,000  Level Gander Center
12:08AM 57.5667 -72.9833 68° East 520 598 39,000  Level Gander Center
12:09AM 57.6167 -72.7167 71° East 520 598 39,000  Level Gander Center
12:10AM 57.6833 -72.4833 62° Northeast 520 598 39,000  Level Gander Center
12:11AM 57.7333 -72.2500 68° East 520 598 39,000  Level Gander Center
12:12AM 57.7833 -71.9833 71° East 510 587 39,000  Level Gander Center
12:13AM 57.8333 -71.7333 69° East 520 598 39,000  Level Gander Center
12:14AM 57.8667 -71.5000 75° East 520 598 39,000  Level Gander Center
12:15AM 57.9333 -71.2333 65° Northeast 520 598 39,000  Level Gander Center
12:16AM 57.9833 -70.9833 69° East 520 598 39,000  Level Gander Center
12:17AM 58.0333 -70.7167 70° East 520 598 39,000  Level Gander Center
12:18AM 58.0833 -70.4833 68° East 520 598 39,000  Level Gander Center
12:19AM 58.1333 -70.2333 69° East 520 598 39,000  Level Gander Center
12:20AM 58.1833 -69.9667 70° East 520 598 39,000  Level Gander Center
12:21AM 58.2333 -69.6833 71° East 520 598 39,000  Level Gander Center
12:22AM 58.2833 -69.4500 68° East 520 598 39,000  Level Gander Center
12:23AM 58.3333 -69.1667 71° East 520 598 39,000  Level Gander Center
12:24AM 58.3833 -68.9167 69° East 520 598 39,000  Level Gander Center
12:25AM 58.4333 -68.6500 70° East 520 598 39,000  Level Gander Center
12:26AM 58.4833 -68.4000 69° East 520 598 39,000  Level Gander Center
12:27AM 58.5167 -68.1167 77° East 520 598 39,000  Level Gander Center
12:28AM 58.5500 -67.8667 76° East 520 598 39,000  Level Gander Center
12:29AM 58.6000 -67.6167 69° East 520 598 39,000  Level Gander Center
12:30AM 58.6500 -67.3333 71° East 520 598 39,000  Level Gander Center
12:31AM 58.7000 -67.0833 69° East 520 598 39,000  Level Gander Center
12:32AM 58.7500 -66.8167 70° East 530 610 39,000  Level Gander Center
12:33AM 58.8000 -66.5500 70° East 530 610 39,000  Level Gander Center
12:34AM 58.8667 -66.3167 61° Northeast 530 610 39,000  Level Gander Center
12:35AM 58.9167 -66.0333 71° East 530 610 39,000  Level Gander Center
12:36AM 58.9833 -65.7833 63° Northeast 530 610 39,000  Level Gander Center
12:37AM 59.0333 -65.4833 72° East 530 610 39,000  Level Gander Center
12:38AM 59.0833 -65.2333 69° East 530 610 39,000  Level Gander Center
12:39AM 59.1333 -64.9500 71° East 530 610 39,000  Level Gander Center
12:40AM 59.2000 -64.7000 62° Northeast 530 610 39,000  Level Gander Center
12:41AM 59.2500 -64.4333 70° East 530 610 39,000  Level Gander Center
12:42AM 59.2833 -64.1500 77° East 530 610 39,000  Level Gander Center
12:43AM 59.3500 -63.9000 62° Northeast 540 621 39,000  Level Gander Center
12:44AM 59.4000 -63.6000 72° East 530 610 39,000  Level Gander Center
12:45AM 59.4500 -63.3500 68° East 530 610 39,000  Level Gander Center
12:46AM 59.4833 -63.0833 76° East 530 610 39,000  Level Gander Center
12:47AM 59.5500 -62.8000 65° Northeast 540 621 39,000  Level Gander Center
12:48AM 59.6000 -62.5333 70° East 540 621 39,000  Level Gander Center
12:49AM 59.6500 -62.2333 72° East 530 610 39,000  Level Gander Center
12:50AM 59.6833 -61.9333 77° East 530 610 39,000  Level Gander Center
12:51AM 59.7333 -61.6833 68° East 530 610 39,000  Level Gander Center
12:52AM 59.7667 -61.4167 76° East 530 610 39,000  Level Gander Center
12:53AM 59.8167 -61.1167 72° East 520 598 39,000  Level Gander Center
12:54AM 59.8667 -60.8500 69° East 530 610 39,000  Level Gander Center
12:55AM 59.9167 -60.5833 69° East 520 598 39,000  Level Gander Center
12:56AM 59.9667 -60.2833 71° East 530 610 39,000  Level Gander Center
12:57AM 60.0167 -60.0167 69° East 540 621 39,000  Level Gander Center
12:58AM 60.0333 -59.7167 84° East 540 621 39,000  Level Gander Center
12:59AM 60.0667 -59.4167 77° East 530 610 39,000  Level Gander Center
01:00AM 60.1000 -59.1500 76° East 530 610 39,000  Level Gander Center
01:01AM 60.1500 -58.8500 71° East 530 610 39,000  Level Gander Center
01:02AM 60.1833 -58.5667 77° East 530 610 39,000  Level Gander Center
01:03AM 60.2167 -58.3000 76° East 530 610 39,000  Level Gander Center
01:04AM 60.2667 -58.0000 71° East 530 610 39,000  Level Gander Center
01:05AM 60.2833 -57.7333 83° East 530 610 39,000  Level Gander Center
01:06AM 60.3333 -57.4167 72° East 530 610 39,000  Level Gander Center
01:07AM 60.3500 -57.1167 83° East 530 610 39,000  Level Gander Center
01:08AM 60.4000 -56.8333 70° East 530 610 39,000  Level Gander Center
01:09AM 60.4167 -56.5667 83° East 530 610 39,000  Level Gander Center
01:10AM 60.4667 -56.2500 72° East 540 621 39,000  Level Gander Center
01:11AM 60.5000 -55.9500 77° East 530 610 39,000  Level Gander Center
01:12AM 60.5167 -55.6333 84° East 530 610 39,000  Level Gander Center
01:13AM 60.5500 -55.3667 76° East 530 610 39,000  Level Gander Center
01:14AM 60.5833 -55.0500 78° East 530 610 39,000  Level Gander Center
01:15AM 60.6167 -54.7667 76° East 530 610 39,000  Level Gander Center
01:16AM 60.6333 -54.4667 83° East 530 610 39,000  Level Gander Center
01:17AM 60.6667 -54.1833 76° East 530 610 39,000  Level Gander Center
01:18AM 60.6833 -53.9000 83° East 530 610 39,000  Level Gander Center
01:19AM 60.7167 -53.6000 77° East 530 610 39,000  Level Gander Center
01:20AM 60.7500 -53.3167 76° East 530 610 39,000  Level Gander Center
01:21AM 60.7667 -53.0000 84° East 540 621 39,000  Level Gander Center
01:22AM 60.8000 -52.6833 78° East 540 621 39,000  Level Gander Center
01:23AM 60.8167 -52.4000 83° East 540 621 39,000  Level Gander Center
01:24AM 60.8500 -52.0833 78° East 540 621 39,000  Level Gander Center
01:25AM 60.8667 -51.8167 83° East 540 621 39,000  Level Gander Center
01:26AM 60.9000 -51.3500 81° East 540 621 39,000  Level Gander Center
01:27AM 60.9167 -51.0667 83° East 540 621 39,000  Level Gander Center
01:28AM 60.9333 -50.7500 84° East 540 621 39,000  Level Gander Center
01:29AM 60.9667 -50.4667 76° East 540 621 39,000  Level Gander Center
01:30AM 60.9833 -50.1500 84° East 540 621 39,000  Level Gander Center
01:31AM 61.0000 -49.8667 83° East 530 610 39,000  Level Gander Center
01:32AM 61.0500 -49.5667 71° East 540 621 39,000  Level Gander Center
01:33AM 61.0833 -49.2833 76° East 540 621 39,000  Level Gander Center
01:34AM 61.1167 -49.0000 76° East 530 610 39,000  Level Gander Center
01:35AM 61.1500 -48.7000 77° East 530 610 39,000  Level Gander Center
01:36AM 61.2000 -48.3667 73° East 530 610 39,000  Level Gander Center
01:37AM 61.2333 -48.0667 77° East 530 610 39,000  Level Gander Center
01:38AM 61.2667 -47.7833 76° East 530 610 39,000  Level Gander Center
01:39AM 61.3167 -47.4833 71° East 540 621 39,000  Level Gander Center
01:40AM 61.3500 -47.1833 77° East 540 621 39,000  Level Gander Center
01:41AM 61.3667 -46.9000 83° East 540 621 39,000  Level Gander Center
01:42AM 61.4000 -46.6000 77° East 540 621 39,000  Level Gander Center
01:43AM 61.4500 -46.3000 71° East 540 621 39,000  Level Gander Center
01:44AM 61.4833 -46.0000 77° East 540 621 39,000  Level Gander Center
01:45AM 61.5167 -45.7000 77° East 540 621 39,000  Level Gander Center
01:46AM 61.5500 -45.4000 77° East 540 621 39,000  Level Gander Center
01:47AM 61.5833 -45.0500 79° East 540 621 39,000  Level Gander Center
01:48AM 61.6000 -44.7667 83° East 530 610 39,000  Level Gander Center
01:49AM 61.6333 -44.4667 77° East 530 610 39,000  Level Gander Center
01:50AM 61.6667 -44.1833 76° East 540 621 39,000  Level Gander Center
01:51AM 61.6833 -43.8500 84° East 540 621 39,000  Level Gander Center
01:52AM 61.7167 -43.5500 77° East 540 621 39,000  Level Gander Center
01:53AM 61.7333 -43.2500 83° East 530 610 39,000  Level Gander Center
01:54AM 61.7667 -42.9500 77° East 540 621 39,000  Level Gander Center
01:55AM 61.7833 -42.6500 83° East 540 621 39,000  Level Gander Center
01:56AM 61.8167 -42.3333 77° East 540 621 39,000  Level Gander Center
01:57AM 61.8500 -42.0333 77° East 540 621 39,000  Level Gander Center
01:58AM 61.8667 -41.7167 83° East 540 621 39,000  Level Gander Center
01:59AM 61.9000 -41.4167 77° East 540 621 39,000  Level Gander Center
02:00AM 61.9000 -41.0833 90° East 540 621 39,000  Level Gander Center
02:01AM 61.9167 -40.7833 83° East 540 621 39,000  Level Gander Center
02:02AM 61.9500 -40.4667 77° East 540 621 39,000  Level Gander Center
02:03AM 61.9667 -40.1667 83° East 540 621 39,000  Level Gander Center
02:04AM 61.9833 -39.8500 83° East 540 621 39,000  Level Gander Center
02:05AM 62.0000 -39.5500 83° East 540 621 39,000  Level Gander Center
02:06AM 62.0000 -39.2500 90° East 540 621 39,000  Level Gander Center
02:07AM 62.0167 -38.9167 84° East 540 621 39,000  Level Gander Center
02:08AM 62.0167 -38.6167 90° East 540 621 39,000  Level Gander Center
02:09AM 62.0333 -38.3000 83° East 540 621 39,000  Level Gander Center
02:10AM 62.0333 -37.9667 90° East 540 621 39,000  Level Gander Center
02:11AM 62.0500 -37.6667 83° East 540 621 39,000  Level Gander Center
02:12AM 62.0500 -37.3333 90° East 540 621 39,000  Level Gander Center
02:13AM 62.0667 -37.0167 83° East 540 621 39,000  Level Gander Center
02:14AM 62.0667 -36.7167 90° East 540 621 39,000  Level Gander Center
02:15AM 62.0667 -36.4167 90° East 540 621 39,000  Level Gander Center
02:16AM 62.0667 -36.1333 90° East 540 621 39,000  Level Gander Center
02:18AM 62.0667 -35.4833 90° East 540 621 39,000  Level Gander Center
02:19AM 62.0667 -35.1333 90° East 550 633 39,000  Level Gander Center
02:21AM 62.0681 -34.7925 89° East  Level FlightAware Approximate
02:28AM 62.0591 -32.7181 90° East  Level FlightAware Approximate
02:29AM 62.0552 -32.4219 91° East  Level FlightAware Approximate
02:30AM 62.0508 -32.1259 92° East  Level FlightAware Approximate
02:31AM 62.0457 -31.8299 92° East  Level FlightAware Approximate
02:32AM 62.0399 -31.5340 92° East  Level FlightAware Approximate
02:33AM 62.0336 -31.2382 92° East  Level FlightAware Approximate
02:34AM 62.0266 -30.9426 93° East  Level FlightAware Approximate
02:35AM 62.0189 -30.6471 93° East  Level FlightAware Approximate
02:36AM 62.0107 -30.3517 93° East  Level FlightAware Approximate
02:37AM 62.0018 -30.0565 94° East  Level FlightAware Approximate
02:37AM 61.9290 -29.6580 108° East 530 610 39,000  Level FlightAware
02:38AM 61.9648 -29.7731 108° East  Level FlightAware Approximate
02:38AM 61.8980 -29.4570 108° East 531 611 39,000  Level FlightAware
02:39AM 61.8660 -29.2530 108° East 531 611 39,000  Level FlightAware
02:40AM 61.8310 -29.0370 109° East 531 611 39,000  Level FlightAware
02:40AM 61.7990 -28.8390 109° East 531 611 39,000  Level FlightAware
02:41AM 61.7670 -28.6400 109° East 531 611 39,000  Level FlightAware
02:42AM 61.7350 -28.4430 109° East 530 610 39,000  Level FlightAware
02:42AM 61.7080 -28.2810 109° East 530 610 39,000  Level FlightAware
02:43AM 61.6840 -28.1350 109° East 530 610 39,000  Level FlightAware
02:44AM 61.6520 -27.9360 109° East 530 610 39,000  Level FlightAware
02:44AM 61.5950 -27.6260 111° Southeast 526 605 39,000  Level FlightAware
02:47AM 61.4931 -27.0424 110° East  Level FlightAware Approximate
02:47AM 61.4960 -27.0570 110° East 527 606 39,000  Level FlightAware
02:47AM 61.4490 -26.8000 111° Southeast 530 610 39,000  Level FlightAware
02:48AM 61.4140 -26.5990 110° East 530 610 39,000  Level FlightAware
02:49AM 61.3670 -26.3580 112° Southeast 530 610 39,000  Level FlightAware
02:49AM 61.3340 -26.1780 111° Southeast 529 609 39,000  Level FlightAware
02:50AM 61.2840 -25.9100 111° Southeast 528 608 39,000  Level FlightAware
02:51AM 61.2570 -25.7650 111° Southeast 528 608 39,000  Level FlightAware
02:52AM 61.2200 -25.5670 111° Southeast 528 608 39,000  Level FlightAware
02:53AM 61.1630 -25.2880 113° Southeast 533 613 39,000  Level FlightAware
02:53AM 61.1250 -25.0970 112° Southeast 533 613 39,000  Level FlightAware
02:54AM 61.0830 -24.8860 112° Southeast 534 615 39,000  Level FlightAware
02:55AM 61.0490 -24.7170 113° Southeast 533 613 39,000  Level FlightAware
02:55AM 61.0050 -24.4990 113° Southeast 536 617 39,000  Level FlightAware
02:56AM 60.9670 -24.3130 113° Southeast 540 621 39,000  Level FlightAware
02:57AM 60.9230 -24.1020 113° Southeast 542 624 39,000  Level FlightAware
02:57AM 60.8890 -23.9360 113° Southeast 542 624 39,000  Level FlightAware
02:58AM 60.8350 -23.6820 113° Southeast 543 625 39,000  Level FlightAware
02:59AM 60.7940 -23.4840 113° Southeast 543 625 39,000  Level FlightAware
03:02AM 60.6629 -22.8678 113° Southeast  Level FlightAware Approximate
03:02AM 60.5930 -22.5740 113° Southeast 546 628 39,000  Level FlightAware
03:03AM 60.5450 -22.3620 115° Southeast 544 626 39,000  Level FlightAware
03:04AM 60.5010 -22.1660 114° Southeast 544 626 39,000  Level FlightAware
03:04AM 60.4690 -22.0240 115° Southeast 543 625 39,000  Level FlightAware
03:05AM 60.4190 -21.8110 115° Southeast 544 626 39,000  Level FlightAware
03:06AM 60.3550 -21.5360 115° Southeast 543 625 39,000  Level FlightAware
03:07AM 60.3230 -21.3950 115° Southeast 543 625 39,000  Level FlightAware
03:07AM 60.2790 -21.2040 115° Southeast 543 625 39,000  Level FlightAware
03:08AM 60.2440 -21.0550 115° Southeast 543 625 39,000  Level FlightAware
03:09AM 60.1900 -20.8220 115° Southeast 543 625 39,000  Level FlightAware
03:10AM 60.1590 -20.6890 115° Southeast 543 625 39,000  Level FlightAware
03:10AM 60.1160 -20.5030 115° Southeast 543 625 39,000  Level FlightAware
03:11AM 60.0770 -20.3360 115° Southeast 543 625 39,000  Level FlightAware
03:12AM 60.0450 -20.1960 115° Southeast 543 625 39,000  Level FlightAware
03:13AM 60.0010 -20.0110 115° Southeast 543 625 39,000  Level FlightAware
03:13AM 59.9680 -19.8670 115° Southeast 543 625 39,000  Level FlightAware
03:14AM 59.9240 -19.6820 115° Southeast 543 625 39,000  Level FlightAware
03:15AM 59.8920 -19.5430 115° Southeast 543 625 39,000  Level FlightAware
03:15AM 59.8490 -19.3580 115° Southeast 543 625 39,000  Level FlightAware
03:18AM 59.6932 -18.8523 121° Southeast  Level FlightAware Approximate
03:19AM 59.6201 -18.6186 122° Southeast  Level FlightAware Approximate
03:20AM 59.5466 -18.3860 122° Southeast  Level FlightAware Approximate
03:21AM 59.4726 -18.1544 122° Southeast  Level FlightAware Approximate
03:22AM 59.3983 -17.9239 122° Southeast  Level FlightAware Approximate
03:23AM 59.3235 -17.6943 122° Southeast  Level FlightAware Approximate
03:24AM 59.2484 -17.4657 123° Southeast  Level FlightAware Approximate
03:25AM 59.1728 -17.2382 123° Southeast  Level FlightAware Approximate
03:26AM 59.0969 -17.0117 123° Southeast  Level FlightAware Approximate
03:27AM 59.0205 -16.7861 123° Southeast  Level FlightAware Approximate
03:28AM 58.9438 -16.5616 123° Southeast  Level FlightAware Approximate
03:29AM 58.8667 -16.3381 124° Southeast  Level FlightAware Approximate
03:30AM 58.7892 -16.1155 124° Southeast  Level FlightAware Approximate
03:31AM 58.7113 -15.8940 124° Southeast  Level FlightAware Approximate
03:32AM 58.6330 -15.6735 124° Southeast  Level FlightAware Approximate
03:33AM 58.5544 -15.4539 124° Southeast  Level FlightAware Approximate
03:34AM 58.4754 -15.2353 125° Southeast  Level FlightAware Approximate
03:35AM 58.3960 -15.0177 125° Southeast  Level FlightAware Approximate
03:36AM 58.3163 -14.8011 125° Southeast  Level FlightAware Approximate
03:37AM 58.2362 -14.5855 125° Southeast  Level FlightAware Approximate
03:38AM 58.1557 -14.3708 125° Southeast  Level FlightAware Approximate
03:39AM 58.0748 -14.1571 126° Southeast  Level FlightAware Approximate
03:40AM 57.9937 -13.9444 126° Southeast  Level FlightAware Approximate
03:41AM 57.9121 -13.7326 126° Southeast  Level FlightAware Approximate
03:42AM 57.8302 -13.5218 126° Southeast  Level FlightAware Approximate
03:43AM 57.7480 -13.3120 126° Southeast  Level FlightAware Approximate
03:44AM 57.6654 -13.1031 126° Southeast  Level FlightAware Approximate
03:45AM 57.5825 -12.8951 127° Southeast  Level FlightAware Approximate
03:46AM 57.4992 -12.6882 127° Southeast  Level FlightAware Approximate
03:47AM 57.4156 -12.4821 127° Southeast  Level FlightAware Approximate
03:48AM 57.3316 -12.2770 127° Southeast  Level FlightAware Approximate
03:49AM 57.2474 -12.0728 127° Southeast  Level FlightAware Approximate
03:50AM 57.1628 -11.8696 127° Southeast  Level FlightAware Approximate
03:50AM 57.1500 -10.4180 128° Southeast 543 625 39,000  Level FlightAware
03:51AM 57.0779 -11.6673 128° Southeast  Level FlightAware Approximate
03:51AM 57.0950 -10.2300 118° Southeast 545 627 39,000  Level FlightAware
03:52AM 57.0460 -10.0680 119° Southeast 546 628 39,000  Level FlightAware
03:52AM 56.9900 -9.8810 119° Southeast 541 623 39,000  Level FlightAware
03:53AM 56.9480 -9.7420 119° Southeast 539 620 39,000  Level FlightAware
03:54AM 56.8960 -9.5700 119° Southeast 537 618 39,000  Level FlightAware
03:54AM 56.8420 -9.3940 119° Southeast 536 617 39,000  Level FlightAware
03:55AM 56.7930 -9.2360 119° Southeast 537 618 39,000  Level FlightAware
03:56AM 56.7430 -9.0750 119° Southeast 538 619 39,000  Level FlightAware
03:57AM 56.6810 -8.8760 119° Southeast 539 620 39,000  Level FlightAware
03:57AM 56.6403 -8.7492 119° Southeast 482 555 39,000  Level FlightAware UK
03:57AM 56.6350 -8.7310 119° Southeast 538 619 39,000  Level FlightAware
03:58AM 56.5810 -8.5610 120° Southeast 541 623 39,000  Level FlightAware
03:59AM 56.5279 -8.3966 120° Southeast 482 555 39,000  Level FlightAware UK
03:59AM 56.5240 -8.3850 120° Southeast 541 623 39,000  Level FlightAware
03:59AM 56.4800 -8.2480 120° Southeast 541 623 39,000  Level FlightAware
04:00AM 56.4230 -8.0730 120° Southeast 542 624 39,000  Level FlightAware
04:01AM 56.3650 -7.8950 120° Southeast 543 625 39,000  Level FlightAware
04:01AM 56.3150 -7.7440 121° Southeast 543 625 39,000  Level FlightAware
04:02AM 56.2687 -7.6024 121° Southeast 482 555 39,000  Level FlightAware UK
04:02AM 56.2650 -7.5920 121° Southeast 540 621 39,000  Level FlightAware
04:03AM 56.2140 -7.4390 121° Southeast 540 621 39,000  Level FlightAware
04:04AM 56.1520 -7.2541 121° Southeast 482 555 39,000  Level FlightAware UK
04:04AM 56.1500 -7.2490 121° Southeast 539 620 39,000  Level FlightAware
04:04AM 56.0990 -7.0950 121° Southeast 538 619 39,000  Level FlightAware
04:05AM 56.0470 -6.9430 121° Southeast 539 620 39,000  Level FlightAware
04:06AM 55.9959 -6.7951 121° Southeast 482 555 39,000  Level FlightAware UK
04:06AM 55.9880 -6.7720 121° Southeast 539 620 39,000  Level FlightAware
04:06AM 55.9340 -6.6160 122° Southeast 538 619 39,000  Level FlightAware
04:07AM 55.8778 -6.4534 122° Southeast 480 552 39,000  Level FlightAware UK
04:07AM 55.8750 -6.4470 122° Southeast 537 618 39,000  Level FlightAware
04:08AM 55.8290 -6.3150 122° Southeast 542 624 39,000  Level FlightAware
04:08AM 55.7720 -6.1510 122° Southeast 542 624 39,000  Level FlightAware
04:09AM 55.7187 -6.0009 122° Southeast 478 550 39,000  Level FlightAware UK
04:09AM 55.7100 -5.9770 122° Southeast 544 626 39,000  Level FlightAware
04:10AM 55.6625 -5.8430 122° Southeast 482 555 39,000  Level FlightAware UK
04:10AM 55.6560 -5.8250 122° Southeast 545 627 39,000  Level FlightAware
04:11AM 55.6030 -5.6760 122° Southeast 545 627 39,000  Level FlightAware
04:11AM 55.5470 -5.5210 123° Southeast 545 627 39,000  Level FlightAware
04:12AM 55.4800 -5.3380 123° Southeast 543 625 39,000  Level FlightAware
04:13AM 55.4350 -5.2150 123° Southeast 542 624 39,000  Level FlightAware
04:13AM 55.3710 -5.0400 123° Southeast 542 624 39,000 -180 Level FlightAware
04:14AM 55.3080 -4.8690 123° Southeast 547 629 38,800 -480 Descending FlightAware
04:16AM 55.1853 -4.5424 123° Southeast 482 555 38,000 -420 Descending FlightAware UK
04:16AM 55.1348 -4.4089 123° Southeast 480 552 38,000  Level FlightAware UK
04:16AM 55.1120 -4.3490 123° Southeast 549 632 38,000  Level FlightAware
04:17AM 55.0500 -4.1860 124° Southeast 550 633 38,000  Level FlightAware
04:18AM 54.9890 -4.0270 124° Southeast 550 633 38,000  Level FlightAware
04:19AM 54.9300 -3.8740 124° Southeast 550 633 38,000  Level FlightAware
04:19AM 54.8724 -3.7254 124° Southeast 480 552 38,000  Level FlightAware UK
04:19AM 54.8730 -3.7260 124° Southeast 550 633 38,000  Level FlightAware
04:20AM 54.8196 -3.5962 124° Southeast 482 555 38,000  Level FlightAware UK
04:20AM 54.8100 -3.5760 124° Southeast 551 634 38,000  Level FlightAware
04:21AM 54.7330 -3.4360 134° Southeast 549 632 38,000  Level FlightAware
04:21AM 54.6560 -3.3280 141° Southeast 547 629 38,000  Level FlightAware
04:22AM 54.5775 -3.2411 141° Southeast 484 557 38,000  Level FlightAware UK
04:22AM 54.5610 -3.2250 141° Southeast 544 626 38,000  Level FlightAware
04:23AM 54.4650 -3.1500 156° South 538 619 38,000  Level FlightAware
04:23AM 54.3830 -3.0890 156° South 539 620 38,000  Level FlightAware
04:23AM 54.3733 -3.0818 156° South 480 552 38,000  Level FlightAware UK
04:24AM 54.3049 -3.0305 156° South 480 552 38,000  Level FlightAware UK
04:24AM 54.2780 -3.0110 156° South 539 620 38,000  Level FlightAware
04:25AM 54.2091 -2.9600 156° South 476 548 38,000  Level FlightAware UK
04:25AM 54.1790 -2.9380 156° South 530 610 38,000  Level FlightAware
04:26AM 54.0840 -2.8680 157° South 527 606 38,000  Level FlightAware
04:26AM 53.9990 -2.8060 157° South 527 606 38,000  Level FlightAware
04:27AM 53.8970 -2.7290 156° South 529 609 38,000  Level FlightAware
04:28AM 53.8213 -2.6659 156° South 472 543 38,000  Level FlightAware UK
04:28AM 53.8040 -2.6520 156° South 529 609 38,000  Level FlightAware
04:28AM 53.7288 -2.5911 156° South 472 543 38,000  Level FlightAware UK
04:28AM 53.7140 -2.5800 156° South 529 609 38,000  Level FlightAware
04:29AM 53.6240 -2.5080 155° Southeast 529 609 38,000  Level FlightAware
04:30AM 53.5440 -2.4460 155° Southeast 529 609 38,000  Level FlightAware
04:30AM 53.4380 -2.3620 155° Southeast 529 609 38,000  Level FlightAware
04:31AM 53.3570 -2.2984 155° Southeast 472 543 38,000  Level FlightAware UK
04:31AM 53.3530 -2.2960 155° Southeast 528 608 38,000  Level FlightAware
04:32AM 53.2520 -2.2170 155° Southeast 528 608 38,000  Level FlightAware
04:33AM 53.1710 -2.1540 155° Southeast 528 608 38,000  Level FlightAware
04:33AM 53.0680 -2.0750 155° Southeast 527 606 38,000  Level FlightAware
04:34AM 52.9690 -1.9980 155° Southeast 527 606 38,000  Level FlightAware
04:35AM 52.8660 -1.9190 155° Southeast 527 606 38,000  Level FlightAware
04:36AM 52.7680 -1.8450 155° Southeast 528 608 38,000  Level FlightAware
04:36AM 52.6797 -1.7781 155° Southeast 470 541 38,000  Level FlightAware UK
04:36AM 52.6650 -1.7670 155° Southeast 529 609 38,000  Level FlightAware
04:37AM 52.5690 -1.6950 155° Southeast 528 608 38,000  Level FlightAware
04:38AM 52.4780 -1.6270 156° South 526 605 38,000  Level FlightAware
04:38AM 52.3860 -1.5580 155° Southeast 526 605 38,000  Level FlightAware
04:39AM 52.3070 -1.4800 149° Southeast 526 605 38,000  Level FlightAware
04:40AM 52.2160 -1.3830 147° Southeast 527 606 38,000  Level FlightAware
04:40AM 52.1340 -1.2950 147° Southeast 526 605 38,000  Level FlightAware
04:41AM 52.0555 -1.2107 147° Southeast 470 541 38,000  Level FlightAware UK
04:41AM 52.0430 -1.1980 147° Southeast 528 608 38,000  Level FlightAware
04:42AM 51.9610 -1.1100 147° Southeast 528 608 38,000  Level FlightAware
04:43AM 51.8714 -1.0159 147° Southeast 468 539 38,000  Level FlightAware UK
04:43AM 51.8750 -1.0190 147° Southeast 528 608 38,000  Level FlightAware
04:43AM 51.7979 -0.9385 147° Southeast 468 539 38,000  Level FlightAware UK
04:43AM 51.7860 -0.9260 147° Southeast 527 606 38,000  Level FlightAware
04:44AM 51.7123 -0.8487 147° Southeast 468 539 38,000  Level FlightAware UK
04:44AM 51.6970 -0.8330 147° Southeast 528 608 38,000  Level FlightAware
04:45AM 51.6330 -0.7660 147° Southeast 529 609 38,000  Level FlightAware
04:45AM 51.5641 -0.6947 147° Southeast 468 539 38,000  Level FlightAware UK
04:45AM 51.5360 -0.6650 147° Southeast 529 609 38,000  Level FlightAware
04:46AM 51.4520 -0.5790 147° Southeast 529 609 38,000  Level FlightAware
04:47AM 51.3620 -0.4860 147° Southeast 528 608 38,000  Level FlightAware
04:47AM 51.3541 -0.4779 147° Southeast 470 541 38,000 -300 Level FlightAware UK
04:48AM 51.2700 -0.3920 147° Southeast 530 610 37,800 -1,080 Descending FlightAware
04:48AM 51.1814 -0.3022 147° Southeast 464 534 36,500 -1,800 Descending FlightAware UK
04:48AM 51.1840 -0.3050 147° Southeast 517 595 36,600 -1,500 Climbing FlightAware
04:49AM 51.1082 -0.2273 147° Southeast 462 532 35,600 -1,680 Descending FlightAware UK
04:49AM 51.1030 -0.2220 147° Southeast 516 594 35,500 -1,680 Descending FlightAware
04:49AM 51.0345 -0.1530 147° Southeast 458 527 34,600 -1,560 Descending FlightAware UK
04:50AM 51.0230 -0.1410 147° Southeast 514 592 34,500 -1,440 Descending FlightAware
04:50AM 50.9620 -0.0800 148° Southeast 517 595 33,700 -1,380 Descending FlightAware
04:51AM 50.8700 0.0120 148° Southeast 529 609 32,800 -1,200 Descending FlightAware
04:51AM 50.7880 0.0940 148° Southeast 515 593 32,000 -1,200 Descending FlightAware
04:52AM 50.7201 0.1723 148° Southeast 454 522 31,400 -960 Descending FlightAware UK
04:52AM 50.7020 0.1970 148° Southeast 507 583 31,300 -960 Descending FlightAware
04:53AM 50.6280 0.2920 141° Southeast 512 589 30,600 -1,020 Descending FlightAware
04:54AM 50.5550 0.3840 141° Southeast 500 575 30,000 -1,080 Descending FlightAware
04:54AM 50.4880 0.4690 141° Southeast 501 577 29,200 -2,160 Descending FlightAware
04:55AM 50.4120 0.5650 141° Southeast 487 560 27,100 -3,300 Descending FlightAware
04:55AM 50.3935 0.5880 141° Southeast 428 493 26,600 -1,380 Descending FlightAware UK
04:56AM 50.3250 0.6690 143° Southeast 482 555 26,000 -600 Descending FlightAware
04:56AM 50.2624 0.7329 143° Southeast 418 481 25,900  Descending FlightAware UK
04:56AM 50.2460 0.7510 143° Southeast 481 554 26,000 60 Climbing FlightAware
04:57AM 50.1690 0.8330 146° Southeast 473 544 26,000 -420 Level FlightAware
04:58AM 50.0980 0.9090 146° Southeast 471 542 25,500 -1,320 Descending FlightAware
04:58AM 50.0214 0.9914 146° Southeast 408 470 24,300 -1,740 Descending FlightAware UK
04:59AM 50.0150 0.9990 146° Southeast 473 544 24,200 -1,500 Descending FlightAware
04:59AM 49.9560 1.0620 146° Southeast 469 540 23,300 -1,620 Descending FlightAware
05:00AM 49.8460 1.1780 146° Southeast 453 521 21,700 -1,680 Descending FlightAware
05:00AM 49.8396 1.1849 146° Southeast 392 451 21,600 -1,500 Descending FlightAware UK
05:01AM 49.7874 1.2397 146° Southeast 390 449 20,900 -1,320 Descending FlightAware UK
05:01AM 49.7760 1.2520 146° Southeast 447 514 20,800 -1,260 Descending FlightAware
05:02AM 49.7000 1.3320 146° Southeast 444 511 19,800 -1,380 Descending FlightAware
05:02AM 49.6320 1.4040 146° Southeast 432 497 18,900 -1,440 Descending FlightAware
05:03AM 49.5650 1.4740 146° Southeast 429 494 17,900 -1,740 Descending FlightAware
05:04AM 49.4940 1.5480 146° Southeast 413 475 16,500 -1,980 Descending FlightAware
05:04AM 49.4287 1.6152 146° Southeast 354 407 15,200 -2,280 Descending FlightAware UK
05:04AM 49.4210 1.6240 146° Southeast 410 472 14,800 -2,340 Descending FlightAware
05:05AM 49.3670 1.6790 146° Southeast 385 443 13,600 -1,920 Descending FlightAware
05:06AM 49.3070 1.7440 145° Southeast 353 406 12,300 -1,740 Descending FlightAware
05:06AM 49.2930 1.7780 122° Southeast 343 395 11,900 -1,200 Descending FlightAware
05:06AM 49.2900 1.7970 104° East 331 381 11,800 -720 Descending FlightAware
05:07AM 49.2855 1.9210 104° East 296 341 11,200 -600 Descending FlightAware UK
05:07AM 49.2850 1.9130 104° East 322 371 11,300 -540 Climbing FlightAware
05:08AM 49.2804 2.0022 104° East 1 1 10,900 -480 Descending FlightAware UK
05:08AM 49.2800 2.0080 104° East 318 366 11,000 120 Climbing FlightAware
05:08AM 49.2760 2.0960 94° East 317 365 11,000  Level FlightAware
05:09AM 49.2710 2.1960 94° East 317 365 11,000  Level FlightAware
05:10AM 49.2670 2.2800 94° East 318 366 11,000  Level FlightAware
05:10AM 49.2620 2.3820 94° East 297 342 11,000 -240 Level FlightAware
05:12AM 49.2550 2.5140 95° East 278 320 10,600 -660 Descending FlightAware
05:12AM 49.2450 2.6030 100° East 279 321 9,800 -1,020 Descending FlightAware
05:13AM 49.2390 2.6510 101° East 280 322 9,400 -900 Descending FlightAware
05:13AM 49.2330 2.7070 99° East 272 313 9,000 -480 Descending FlightAware
05:14AM 49.2270 2.7560 101° East 270 311 9,000  Level FlightAware
05:14AM 49.2230 2.7850 102° East 270 311 9,000  Level FlightAware
05:14AM 49.2170 2.8360 100° East 267 307 9,000 -420 Level FlightAware
05:15AM 49.2070 2.9240 100° East 263 303 8,500 -780 Descending FlightAware
05:16AM 49.2010 2.9680 102° East 266 306 8,100 -780 Descending FlightAware
05:16AM 49.1950 3.0160 101° East 259 298 7,800 -900 Descending FlightAware
05:16AM 49.1880 3.0690 101° East 254 292 7,300 -1,200 Descending FlightAware
05:17AM 49.1830 3.0830 119° Southeast 259 298 7,100 -1,200 Descending FlightAware
05:17AM 49.1620 3.1060 144° Southeast 258 297 6,700 -1,080 Descending FlightAware
05:17AM 49.1340 3.1180 164° South 255 293 6,300 -1,140 Descending FlightAware
05:18AM 49.0960 3.1210 177° South 261 300 5,700 -1,140 Descending FlightAware
05:18AM 49.0690 3.1080 198° South 237 273 5,300 -780 Descending FlightAware
05:19AM 49.0590 3.0910 228° Southwest 225 259 5,200 -840 Descending FlightAware
05:19AM 49.0530 3.0690 247° West 221 254 4,900 -600 Descending FlightAware
05:19AM 49.0510 3.0300 266° West 222 255 4,800 -180 Descending FlightAware
05:20AM 49.0490 2.9990 264° West 221 254 4,800  Level FlightAware
05:20AM 49.0470 2.9600 266° West 221 254 4,800  Level FlightAware
05:20AM 49.0450 2.9230 265° West 204 235 4,800 -600 Level FlightAware
05:21AM 49.0430 2.8790 266° West 196 226 4,300 -1,140 Descending FlightAware
05:21AM 49.0410 2.8390 266° West 180 207 3,700 -1,020 Descending FlightAware
05:22AM 49.0400 2.8080 267° West 176 203 3,400 -900 Descending FlightAware
05:22AM 49.0380 2.7720 265° West 174 200 2,900 -1,080 Descending FlightAware
05:22AM 49.0370 2.7590 263° West 173 199 2,700 -960 Descending FlightAware
05:23AM 49.0350 2.7190 266° West 159 183 2,200 -840 Descending FlightAware
05:23AM 49.0340 2.7070 263° West 153 176 2,100 -900 Descending FlightAware
05:24AM 49.0330 2.6810 267° West 145 167 1,700 -840 Descending FlightAware
05:24AM 49.0310 2.6490 265° West 129 148 1,300 -720 Descending FlightAware
05:25AM 49.0300 2.6250 266° West 128 147 1,000 -660 Descending FlightAware
05:25AM 49.0290 2.5980 267° West 131 151 700 -660 Descending FlightAware
05:26AM 49.0280 2.5760 266° West 128 147 400 -660 Descending FlightAware
05:26AM 49.0260 2.5480 264° West 131 151 100 -600 Descending FlightAware
05:26AM 49.0250 2.5330 264° West 55 63 -240 Descending FlightAware
05:27AM 49.0250 2.5290 270° West 25 29  Level FlightAware
05:27AM 49.0240 2.5270 233° Southwest 15 17  Level FlightAware
05:28AM 49.0230 2.5270 180° South  Level FlightAware
05:31AM 49.0000 2.5333 141° Southeast  Level FlightAware Approximate